Silverdale, PA

9:50 AM EDT on August 21, 2014 (GMT -0400)
Doylestown | Change Station
CLOSE
Current Station
Airport
Location: Doylestown,
Elevation: 394 ft
Nearby Weather Stations

Elev 394 ft 40.33 °N, 75.12 °W | Updated 56 minutes ago

Partly Cloudy
Partly Cloudy
72 °F
Feels Like 72 °F
N
0
Wind Variable Wind from North

Today
High -- | Low -- °F
--% Chance of Precip.
Yesterday
High -- | Low -- °F
Precip. -- in
6:17 AM 7:49 PM
Waning Crescent, 14% visible
Pressure 30.06 in
Visibility 10.0 miles
Clouds Few 4700 ft
Dew Point 66 °F
Humidity 81%
Rainfall 0.00 in
Snow Depth Not available.
UV 3 out of 12
Pollen 8.20 out of 12
Air Quality Not available.
Flu Activity Not available.
METAR KDYL 211254Z AUTO 00000KT 10SM FEW047 22/19 A3007 RMK AO2 SLP177 T02220189

More Conditions Fewer Conditions

Pressure 30.06 in
Visibility 10.0 miles
Clouds Few 4700 ft
Dew Point 66 °F
Humidity 81%
Rainfall 0.00 in
Snow Depth Not available.
UV 3 out of 12
Pollen 8.20 out of 12
Air Quality Not available.
Flu Activity Not available.
METAR KDYL 211254Z AUTO 00000KT 10SM FEW047 22/19 A3007 RMK AO2 SLP177 T02220189

More Conditions Fewer Conditions

10-Day Weather Forecast

Almanac

Astronomy

Aug. 21, 2014 Rise Set
Actual Time 6:17 AM EDT 7:49 PM EDT
Civil Twilight 5:49 AM EDT 8:18 PM EDT
Nautical Twilight 5:14 AM EDT 8:52 PM EDT
Astronomical Twilight 4:37 AM EDT 9:29 PM EDT
Moon 2:45 AM EDT 5:17 PM EDT
Length of Visible Light 14h 29m
Length of Day
13h 31m
Tomorrow will be 2m 26s shorter.
Waning Crescent, 14% of the Moon is Illuminated
Today
Waning Crescent
Aug 25
New
Sep 2
First Quarter
Sep 8
Full
Sep 15
Last Quarter

Today's Extremes

State Highs State Lows

Community

WunderPhotos

Upload Photos

1,745,918 photos uploaded!

WunderBlogs® & News

Nearby

Snow Depth

Station Depth Elevation
No new snow has been reported.

Earthquake Activity

City Distance Mag. Time & Date
No recent earthquake activity has been reported nearby.
Minimum magnitude displayed is 2.5.

Coastal Water Temperatures

Place Temperature
No Stations Reporting

Nearby Weather Stations